Time;durP1;ratioP1;P1;durP2;ratioP2;P2;SDS_P1;SDS_P2;PMS_P1;PMS_P2;Temp;Humidity;BMP_temperature;BMP_pressure;BME280_temperature;BME280_humidity;BME280_pressure;Samples;Min_cycle;Max_cycle;Signal;HPM_P1;HPM_P2
2023/03/22 00:01:29;;;;;;;0.90;0.90;;;;;;;11.78;100.00;96544.00;5006233;28;20116;-62
2023/03/22 00:03:56;;;;;;;1.00;1.00;;;;;;;9.25;100.00;96142.94;5006376;28;20046;-56
2023/03/22 00:06:24;;;;;;;0.98;0.98;;;;;;;11.97;100.00;96568.66;5005987;28;20046;-62
2023/03/22 00:08:52;;;;;;;0.95;0.95;;;;;;;11.30;100.00;96459.34;5006119;28;20160;-62
2023/03/22 00:11:21;;;;;;;0.90;0.90;;;;;;;11.99;100.00;96566.28;5020900;28;20053;-62
2023/03/22 00:13:51;;;;;;;0.90;0.90;;;;;;;11.87;100.00;96548.00;5004402;28;20540;-62
2023/03/22 00:16:18;;;;;;;0.98;0.98;;;;;;;12.00;100.00;96567.88;5006039;28;20050;-56
2023/03/22 00:18:45;;;;;;;0.90;0.90;;;;;;;9.20;100.00;96149.59;5005530;28;20049;-62
2023/03/22 00:21:14;;;;;;;1.00;1.00;;;;;;;11.91;100.00;96573.00;5004080;28;20437;-56
2023/03/22 00:23:41;;;;;;;0.90;0.90;;;;;;;12.02;100.00;96576.59;5005462;28;20544;-62
2023/03/22 00:26:10;;;;;;;0.90;0.90;;;;;;;11.92;100.00;96547.63;5005802;28;20127;-62
2023/03/22 00:28:37;;;;;;;0.93;0.93;;;;;;;11.70;100.00;96573.69;5005627;28;20088;-55
2023/03/22 00:31:04;;;;;;;0.90;0.90;;;;;;;11.74;100.00;96565.38;5005634;28;20060;-56
2023/03/22 00:33:31;;;;;;;0.98;0.98;;;;;;;11.83;100.00;96554.72;5006046;28;21285;-62
2023/03/22 00:36:10;;;;;;;0.90;0.90;;;;;;;11.77;100.00;96559.84;5004288;28;20057;-58
2023/03/22 00:38:37;;;;;;;1.00;1.00;;;;;;;11.76;100.00;96554.69;5005618;28;20050;-58
2023/03/22 00:41:13;;;;;;;0.90;0.90;;;;;;;11.76;100.00;96565.81;5004070;28;20053;-57
2023/03/22 00:43:40;;;;;;;1.00;1.00;;;;;;;11.75;100.00;96564.19;5005511;28;20092;-56
2023/03/22 00:46:08;;;;;;;0.90;0.90;;;;;;;11.81;100.00;96571.75;4999156;28;20065;-61
2023/03/22 00:48:35;;;;;;;1.00;1.00;;;;;;;11.87;100.00;96552.78;5005441;28;20133;-61
2023/03/22 00:51:02;;;;;;;0.90;0.90;;;;;;;11.88;100.00;96560.69;5005162;28;20054;-56
2023/03/22 00:53:31;;;;;;;1.00;1.00;;;;;;;11.94;100.00;96544.44;5003706;28;20061;-62
2023/03/22 00:55:59;;;;;;;1.00;1.00;;;;;;;12.02;100.00;96543.28;5003817;28;20099;-57
2023/03/22 00:58:25;;;;;;;0.90;0.90;;;;;;;12.07;100.00;96551.25;5004327;28;20058;-57
2023/03/22 01:00:52;;;;;;;0.90;0.90;;;;;;;12.09;100.00;96541.31;5005335;28;20054;-56
2023/03/22 01:03:20;;;;;;;1.00;1.00;;;;;;;12.12;100.00;96548.09;5005278;28;20072;-61
2023/03/22 01:05:48;;;;;;;0.90;0.90;;;;;;;11.42;100.00;96483.97;5005196;28;20517;-62
2023/03/22 01:08:15;;;;;;;0.82;0.82;;;;;;;11.05;100.00;96422.41;5005078;28;20899;-56
2023/03/22 01:10:43;;;;;;;1.00;1.00;;;;;;;11.89;100.00;96539.28;5004938;28;20049;-59
2023/03/22 01:13:11;;;;;;;1.00;1.00;;;;;;;11.74;100.00;96548.75;5004792;28;20413;-55
2023/03/22 01:15:38;;;;;;;0.90;0.90;;;;;;;11.38;100.00;96474.84;5004277;28;20061;-62
2023/03/22 01:18:04;;;;;;;0.90;0.90;;;;;;;11.46;100.00;96476.47;5005709;28;20080;-62
2023/03/22 01:20:31;;;;;;;1.00;1.00;;;;;;;11.70;100.00;96531.28;5004926;28;20497;-61
2023/03/22 01:22:58;;;;;;;0.90;0.90;;;;;;;11.71;100.00;96532.88;5003605;28;20054;-56
2023/03/22 01:25:25;;;;;;;0.90;0.90;;;;;;;11.31;100.00;96481.16;5005081;28;20054;-62
2023/03/22 01:27:52;;;;;;;1.00;1.00;;;;;;;11.67;100.00;96526.50;5005147;28;20120;-56
2023/03/22 01:30:19;;;;;;;0.82;0.82;;;;;;;11.62;100.00;96524.88;5004145;28;20089;-57
2023/03/22 01:32:46;;;;;;;1.00;1.00;;;;;;;11.48;100.00;96524.81;5004799;28;20088;-62
2023/03/22 01:35:12;;;;;;;0.90;0.90;;;;;;;10.81;100.00;96429.41;5004463;28;20053;-60
2023/03/22 01:37:39;;;;;;;0.90;0.90;;;;;;;11.50;100.00;96527.19;5004501;28;20062;-56
2023/03/22 01:40:07;;;;;;;1.00;1.00;;;;;;;11.48;100.00;96540.63;5004075;28;20104;-61
2023/03/22 01:42:33;;;;;;;1.00;1.00;;;;;;;11.46;100.00;96537.47;5003989;28;20112;-59
2023/03/22 01:45:12;;;;;;;0.90;0.90;;;;;;;11.44;100.00;96534.28;5003288;28;20072;-62
2023/03/22 01:47:53;;;;;;;0.95;0.95;;;;;;;11.54;100.00;96539.88;5004378;28;20054;-56
2023/03/22 01:50:22;;;;;;;0.90;0.90;;;;;;;10.92;100.00;96412.84;5004111;28;20506;-56
2023/03/22 01:52:51;;;;;;;0.90;0.90;;;;;;;11.39;100.00;96491.09;5004569;28;20053;-56
2023/03/22 01:55:21;;;;;;;0.98;0.98;;;;;;;10.92;100.00;96418.38;5002916;28;20070;-62
2023/03/22 01:57:49;;;;;;;1.00;1.00;;;;;;;11.73;100.00;96536.84;5003875;28;20066;-62
2023/03/22 02:00:17;;;;;;;0.90;0.90;;;;;;;11.56;100.00;96537.53;5004423;28;20100;-62
2023/03/22 02:02:47;;;;;;;0.90;0.90;;;;;;;11.57;100.00;96538.34;5004140;28;20458;-56
2023/03/22 02:05:15;;;;;;;0.90;0.90;;;;;;;11.56;100.00;96531.19;5004108;28;20050;-61
2023/03/22 02:07:42;;;;;;;0.95;0.95;;;;;;;11.69;100.00;96541.59;5004269;28;20137;-57
2023/03/22 02:10:20;;;;;;;0.90;0.90;;;;;;;11.75;100.00;96533.66;5003894;28;20046;-56
2023/03/22 02:12:50;;;;;;;1.00;1.00;;;;;;;11.84;100.00;96542.41;5003830;28;20112;-62
2023/03/22 02:15:29;;;;;;;1.00;1.00;;;;;;;11.70;100.00;96542.38;5003918;28;20149;-62
2023/03/22 02:18:20;;;;;;;1.00;1.00;;;;;;;11.27;100.00;96540.53;5004293;28;20072;-57
2023/03/22 02:21:11;;;;;;;0.90;0.90;;;;;;;11.16;100.00;96529.38;5035961;28;20054;-61
2023/03/22 02:24:15;;;;;;;1.00;1.00;;;;;;;11.05;100.00;96536.81;5004034;28;20700;-55
2023/03/22 02:26:59;;;;;;;;;;;;;;;11.29;100.00;96538.16;5003263;28;20588;-61
2023/03/22 02:29:36;;;;;;;0.90;0.90;;;;;;;10.65;100.00;96543.22;5002632;28;19980;-61
2023/03/22 02:32:15;;;;;;;0.80;0.80;;;;;;;10.65;100.00;96548.78;5002944;28;20491;-62
2023/03/22 02:34:54;;;;;;;0.80;0.80;;;;;;;10.30;100.00;96550.44;5004062;28;20065;-64
2023/03/22 02:37:58;;;;;;;0.80;0.80;;;;;;;10.48;100.00;96560.50;4991457;28;20097;-62
2023/03/22 02:40:31;;;;;;;0.90;0.90;;;;;;;10.63;100.00;96556.69;5004181;28;20100;-56
2023/03/22 02:43:33;;;;;;;0.90;0.90;;;;;;;10.79;100.00;96559.19;5002547;28;20070;-62
2023/03/22 02:46:11;;;;;;;0.80;0.80;;;;;;;10.30;100.00;96509.72;5004123;28;20053;-56
2023/03/22 02:48:49;;;;;;;0.90;0.90;;;;;;;9.01;100.00;96326.59;5002186;28;20513;-56
2023/03/22 02:51:32;;;;;;;0.80;0.80;;;;;;;9.27;100.00;96428.75;5004683;28;20086;-58
2023/03/22 02:54:11;;;;;;;0.80;0.80;;;;;;;10.12;100.00;96569.63;5007132;28;20517;-56
2023/03/22 02:56:46;;;;;;;0.80;0.80;;;;;;;9.81;100.00;96511.13;5007444;28;20319;-62
2023/03/22 02:59:16;;;;;;;0.90;0.90;;;;;;;10.43;100.00;96566.38;5007123;28;20048;-62
2023/03/22 03:01:52;;;;;;;0.80;0.80;;;;;;;10.43;100.00;96569.13;5006361;28;20066;-62
2023/03/22 03:04:24;;;;;;;0.80;0.80;;;;;;;10.49;100.00;96570.41;5006911;28;20141;-57
2023/03/22 03:06:55;;;;;;;0.80;0.80;;;;;;;10.57;100.00;96574.81;5006345;28;20057;-62
2023/03/22 03:09:22;;;;;;;0.80;0.80;;;;;;;10.00;100.00;96484.09;5005828;28;20136;-57
2023/03/22 03:11:52;;;;;;;0.85;0.85;;;;;;;10.40;100.00;96578.22;5007315;28;20111;-62
2023/03/22 03:14:28;;;;;;;0.90;0.90;;;;;;;10.01;100.00;96518.88;5007271;28;20402;-56
2023/03/22 03:17:17;;;;;;;0.80;0.80;;;;;;;10.40;100.00;96572.69;5007420;28;20050;-56
2023/03/22 03:19:58;;;;;;;0.80;0.80;;;;;;;10.06;100.00;96579.41;5007900;28;20065;-62
2023/03/22 03:22:39;;;;;;;0.80;0.80;;;;;;;10.27;100.00;96570.56;5009594;28;20458;-57
2023/03/22 03:25:08;;;;;;;0.80;0.80;;;;;;;10.36;100.00;96580.16;5006616;28;20132;-56
2023/03/22 03:28:15;;;;;;;0.82;0.82;;;;;;;10.47;100.00;96581.06;5007062;28;20054;-62
2023/03/22 03:31:39;;;;;;;0.90;0.90;;;;;;;10.48;100.00;96582.66;4999541;28;20525;-62
2023/03/22 03:34:22;;;;;;;0.87;0.87;;;;;;;10.43;100.00;96579.44;4984046;28;20073;-57
2023/03/22 03:37:03;;;;;;;0.90;0.90;;;;;;;10.55;100.00;96582.72;4968236;28;20086;-57
2023/03/22 03:39:33;;;;;;;0.80;0.80;;;;;;;10.33;100.00;96580.94;5001820;28;20591;-57
2023/03/22 03:42:02;;;;;;;0.80;0.80;;;;;;;10.51;100.00;96579.09;5006910;28;20080;-58
2023/03/22 03:44:31;;;;;;;0.90;0.90;;;;;;;10.30;100.00;96542.94;5006374;28;20242;-56
2023/03/22 03:46:58;;;;;;;0.88;0.88;;;;;;;10.42;100.00;96542.66;5006735;28;20483;-56
2023/03/22 03:49:26;;;;;;;0.80;0.80;;;;;;;10.50;100.00;96543.50;5006560;28;20054;-56
2023/03/22 03:51:54;;;;;;;0.90;0.90;;;;;;;10.66;100.00;96583.63;5006749;28;20424;-58
2023/03/22 03:54:22;;;;;;;0.90;0.90;;;;;;;10.73;100.00;96589.22;5006353;28;20058;-62
2023/03/22 03:56:49;;;;;;;0.80;0.80;;;;;;;10.78;100.00;96573.44;5006198;28;20062;-62
2023/03/22 03:59:17;;;;;;;0.90;0.90;;;;;;;10.58;100.00;96545.97;5006105;28;20073;-55
2023/03/22 04:01:49;;;;;;;0.90;0.90;;;;;;;10.75;100.00;96580.50;5005783;28;20485;-56
2023/03/22 04:04:26;;;;;;;0.80;0.80;;;;;;;10.92;100.00;96581.84;5006115;28;20132;-56
2023/03/22 04:06:58;;;;;;;0.90;0.90;;;;;;;10.91;100.00;96574.72;5006567;28;20052;-61
2023/03/22 04:09:33;;;;;;;0.80;0.80;;;;;;;10.85;100.00;96584.56;5006070;28;20440;-62
2023/03/22 04:12:00;;;;;;;0.90;0.90;;;;;;;10.81;100.00;96567.13;5006548;28;20055;-56
2023/03/22 04:14:27;;;;;;;0.90;0.90;;;;;;;10.78;100.00;96567.88;5003225;28;20347;-56
2023/03/22 04:16:54;;;;;;;0.90;0.90;;;;;;;10.75;100.00;96563.13;5003483;28;20125;-58
2023/03/22 04:19:22;;;;;;;0.88;0.88;;;;;;;10.75;100.00;96560.34;5003278;28;20478;-56
2023/03/22 04:21:48;;;;;;;0.90;0.90;;;;;;;10.67;100.00;96571.34;5004711;28;20050;-56
2023/03/22 04:24:15;;;;;;;0.80;0.80;;;;;;;10.40;100.00;96524.84;5004503;28;20096;-62
2023/03/22 04:26:41;;;;;;;0.90;0.90;;;;;;;10.54;100.00;96558.97;5004722;28;20485;-56
2023/03/22 04:29:08;;;;;;;0.90;0.90;;;;;;;10.51;100.00;96543.13;5005713;28;20137;-58
2023/03/22 04:31:36;;;;;;;0.80;0.80;;;;;;;10.46;100.00;96535.16;5005478;28;20552;-61
2023/03/22 04:34:05;;;;;;;0.80;0.80;;;;;;;9.96;100.00;96477.72;5005652;28;20076;-56
2023/03/22 04:36:38;;;;;;;0.90;0.90;;;;;;;10.55;100.00;96570.84;5004201;28;20060;-62
2023/03/22 04:39:10;;;;;;;0.90;0.90;;;;;;;10.53;100.00;96579.53;5005943;28;20141;-57
2023/03/22 04:41:37;;;;;;;0.80;0.80;;;;;;;10.60;100.00;96595.44;5005675;28;20050;-56
2023/03/22 04:44:05;;;;;;;0.85;0.85;;;;;;;10.59;100.00;96571.69;5005462;28;20053;-62
2023/03/22 04:46:34;;;;;;;0.80;0.80;;;;;;;10.13;100.00;96482.66;5004003;28;20104;-62
2023/03/22 04:49:00;;;;;;;0.88;0.88;;;;;;;10.88;100.00;96595.69;5003699;28;20077;-62
2023/03/22 04:51:27;;;;;;;0.90;0.90;;;;;;;9.84;100.00;96425.44;5004017;28;20053;-58
2023/03/22 04:53:54;;;;;;;0.80;0.80;;;;;;;10.95;100.00;96592.16;5005026;28;20520;-62
2023/03/22 04:56:21;;;;;;;0.90;0.90;;;;;;;10.35;100.00;96489.97;5004823;28;20084;-56
2023/03/22 04:58:48;;;;;;;0.93;0.93;;;;;;;10.94;100.00;96568.41;5004900;28;20057;-56
2023/03/22 05:01:16;;;;;;;0.90;0.90;;;;;;;11.15;100.00;96599.06;5004975;28;20125;-59
2023/03/22 05:03:46;;;;;;;0.90;0.90;;;;;;;11.21;100.00;96605.81;5005148;28;20526;-62
2023/03/22 05:06:13;;;;;;;0.90;0.90;;;;;;;10.80;100.00;96526.72;5004953;28;20571;-62
2023/03/22 05:08:40;;;;;;;0.90;0.90;;;;;;;11.06;100.00;96568.09;5005121;28;20050;-62
2023/03/22 05:11:13;;;;;;;0.90;0.90;;;;;;;11.13;100.00;96584.81;5004779;28;20056;-62
2023/03/22 05:13:40;;;;;;;0.90;0.90;;;;;;;10.71;100.00;96590.78;5004135;28;20112;-58
2023/03/22 05:16:08;;;;;;;0.90;0.90;;;;;;;11.31;100.00;96624.53;5004834;28;20052;-56
2023/03/22 05:18:41;;;;;;;0.90;0.90;;;;;;;10.91;100.00;96541.47;5003722;28;20061;-62
2023/03/22 05:21:15;;;;;;;0.90;0.90;;;;;;;11.14;100.00;96558.66;5004984;28;20429;-56
2023/03/22 05:23:43;;;;;;;0.90;0.90;;;;;;;11.47;100.00;96611.16;4998551;28;20054;-56
2023/03/22 05:26:14;;;;;;;0.82;0.82;;;;;;;11.54;100.00;96611.22;4985029;28;20057;-56
2023/03/22 05:28:43;;;;;;;0.90;0.90;;;;;;;11.51;100.00;96617.53;4985525;28;20054;-62
2023/03/22 05:31:10;;;;;;;0.90;0.90;;;;;;;11.58;100.00;96620.34;4985121;28;20050;-62
2023/03/22 05:33:38;;;;;;;0.90;0.90;;;;;;;11.16;100.00;96590.34;4984897;28;20065;-57
2023/03/22 05:36:05;;;;;;;0.90;0.90;;;;;;;11.60;100.00;96659.59;4984807;28;20061;-57
2023/03/22 05:38:32;;;;;;;0.90;0.90;;;;;;;11.78;100.00;96632.78;4984972;28;20054;-56
2023/03/22 05:40:58;;;;;;;1.00;1.00;;;;;;;11.83;100.00;96635.19;4983428;28;20394;-56
2023/03/22 05:43:25;;;;;;;0.90;0.90;;;;;;;11.95;100.00;96640.41;4985014;28;20456;-61
2023/03/22 05:45:52;;;;;;;1.10;1.10;;;;;;;11.84;100.00;96609.03;4984804;28;20130;-62
2023/03/22 05:48:19;;;;;;;1.00;1.00;;;;;;;12.05;100.00;96639.66;4983519;28;20144;-57
2023/03/22 05:50:46;;;;;;;0.90;0.90;;;;;;;11.57;100.00;96560.53;4984254;28;20525;-58
2023/03/22 05:53:12;;;;;;;1.10;1.10;;;;;;;12.19;100.00;96659.16;4984698;28;20552;-61
2023/03/22 05:55:39;;;;;;;0.90;0.90;;;;;;;12.23;100.00;96652.44;4984387;28;20149;-62
2023/03/22 05:58:07;;;;;;;0.90;0.90;;;;;;;12.10;100.00;96644.84;4982940;28;20062;-61
2023/03/22 06:00:34;;;;;;;0.90;0.90;;;;;;;12.17;100.00;96656.00;4984431;28;20061;-62
2023/03/22 06:03:02;;;;;;;0.93;0.93;;;;;;;12.15;100.00;96664.69;4983848;28;20089;-62
2023/03/22 06:05:30;;;;;;;1.00;1.00;;;;;;;12.09;100.00;96671.03;4985175;28;20366;-63
2023/03/22 06:07:58;;;;;;;1.00;1.00;;;;;;;12.21;100.00;96667.91;4985327;28;20054;-63
2023/03/22 06:10:25;;;;;;;0.93;0.93;;;;;;;11.83;99.73;96618.53;4999584;28;20062;-62
2023/03/22 06:12:52;;;;;;;1.00;1.00;;;;;;;11.62;100.00;96596.19;4984778;28;20057;-56
2023/03/22 06:15:19;;;;;;;0.90;0.90;;;;;;;11.95;100.00;96659.81;4984309;28;20509;-56
2023/03/22 06:17:46;;;;;;;0.90;0.90;;;;;;;11.97;100.00;96654.69;4982931;28;20091;-57
2023/03/22 06:20:14;;;;;;;1.00;1.00;;;;;;;12.00;100.00;96657.50;4984268;28;20101;-58
2023/03/22 06:22:40;;;;;;;0.95;0.95;;;;;;;12.10;100.00;96667.88;4983972;28;20050;-57
2023/03/22 06:25:08;;;;;;;1.00;1.00;;;;;;;12.26;100.00;96661.19;4985141;28;20054;-63
2023/03/22 06:27:35;;;;;;;1.00;1.00;;;;;;;12.35;100.00;96667.97;4986797;28;20497;-59
2023/03/22 06:30:03;;;;;;;1.00;1.00;;;;;;;12.32;100.00;96665.16;4988267;28;20049;-62
2023/03/22 06:32:29;;;;;;;1.00;1.00;;;;;;;12.39;100.00;96677.13;4987981;28;20605;-57
2023/03/22 06:34:56;;;;;;;0.90;0.90;;;;;;;11.71;100.00;96682.69;4988184;28;20046;-57
2023/03/22 06:37:23;;;;;;;0.90;0.90;;;;;;;12.00;100.00;96667.78;4988421;28;20057;-62
2023/03/22 06:39:51;;;;;;;0.95;0.95;;;;;;;12.31;100.00;96688.59;4987823;28;20505;-62
2023/03/22 06:42:17;;;;;;;0.90;0.90;;;;;;;11.85;100.00;96617.00;4987842;28;20058;-62
2023/03/22 06:44:44;;;;;;;0.90;0.90;;;;;;;12.35;100.00;96706.84;4986625;28;20054;-57
2023/03/22 06:47:11;;;;;;;1.00;1.00;;;;;;;12.52;100.00;96661.66;4986733;28;20111;-58
2023/03/22 06:49:38;;;;;;;1.02;1.02;;;;;;;12.15;98.87;96638.94;4982776;28;20100;-63
2023/03/22 06:52:05;;;;;;;1.20;1.20;;;;;;;13.09;97.73;96696.78;4976567;28;20112;-57
2023/03/22 06:54:32;;;;;;;1.10;1.10;;;;;;;13.16;96.40;96702.38;4980391;28;20121;-58
2023/03/22 06:56:58;;;;;;;1.30;1.30;;;;;;;13.25;92.75;96694.44;4984358;28;20149;-60
2023/03/22 06:59:25;;;;;;;1.10;1.10;;;;;;;13.19;94.06;96701.56;4978925;28;20506;-57
2023/03/22 07:01:52;;;;;;;1.10;1.10;;;;;;;12.71;92.11;96647.44;4984641;28;20144;-58
2023/03/22 07:04:18;;;;;;;1.00;1.00;;;;;;;13.01;93.95;96683.28;4987616;28;20051;-58
2023/03/22 07:06:46;;;;;;;1.10;1.10;;;;;;;12.58;94.61;96599.00;5001413;28;20457;-57
2023/03/22 07:09:12;;;;;;;1.20;1.20;;;;;;;13.09;94.35;96674.53;4985818;28;20057;-56
2023/03/22 07:11:39;;;;;;;1.20;1.20;;;;;;;12.02;93.28;96510.78;4987365;28;20050;-62
2023/03/22 07:14:06;;;;;;;1.15;1.15;;;;;;;13.37;94.00;96713.50;4985538;28;20291;-58
2023/03/22 07:16:32;;;;;;;1.05;1.05;;;;;;;13.35;93.89;96721.47;4974654;28;20051;-61
2023/03/22 07:19:00;;;;;;;1.30;1.30;;;;;;;13.22;91.64;96711.91;4969876;28;20046;-60
2023/03/22 07:21:26;;;;;;;1.23;1.23;;;;;;;12.94;87.85;96688.78;4982451;28;20077;-61
2023/03/22 07:23:54;;;;;;;1.00;1.00;;;;;;;13.03;88.15;96720.63;4967747;28;20054;-63
2023/03/22 07:26:20;;;;;;;1.10;1.10;;;;;;;13.12;88.86;96718.25;4984821;28;20112;-64
2023/03/22 07:28:47;;;;;;;1.10;1.10;;;;;;;13.06;89.17;96708.69;4969867;28;20057;-61
2023/03/22 07:31:14;;;;;;;1.10;1.10;;;;;;;13.53;89.16;96722.25;4986959;28;20778;-62
2023/03/22 07:33:41;;;;;;;1.20;1.20;;;;;;;13.74;87.37;96726.25;4965589;28;20150;-66
2023/03/22 07:36:09;;;;;;;1.10;1.10;;;;;;;12.80;86.08;96577.59;4981361;28;20403;-63
2023/03/22 07:38:35;;;;;;;1.10;1.10;;;;;;;13.81;84.61;96698.38;4977053;28;20046;-67
2023/03/22 07:41:02;;;;;;;1.25;1.25;;;;;;;14.27;84.45;96727.00;4967064;28;20101;-61
2023/03/22 07:43:29;;;;;;;1.30;1.30;;;;;;;14.62;80.62;96726.88;4966824;28;20097;-63
2023/03/22 07:45:56;;;;;;;1.20;1.20;;;;;;;14.33;77.61;96675.22;4967540;28;20105;-57
2023/03/22 07:48:23;;;;;;;1.30;1.30;;;;;;;14.73;78.24;96727.63;4969699;28;20508;-64
2023/03/22 07:50:55;;;;;;;1.50;1.50;;;;;;;14.72;76.83;96726.03;4967072;28;20140;-57
2023/03/22 07:53:21;;;;;;;1.40;1.40;;;;;;;14.17;76.78;96616.34;4967301;28;20149;-58
2023/03/22 07:55:48;;;;;;;1.20;1.20;;;;;;;14.86;76.46;96731.53;4975934;28;20105;-61
2023/03/22 07:58:15;;;;;;;1.25;1.25;;;;;;;14.82;75.92;96736.34;4969445;28;20390;-60
2023/03/22 08:00:41;;;;;;;1.40;1.40;;;;;;;14.67;74.68;96687.41;4983381;28;20062;-58
2023/03/22 08:03:10;;;;;;;1.30;1.30;;;;;;;14.82;73.44;96697.31;4982833;28;20054;-61
2023/03/22 08:05:42;;;;;;;1.40;1.40;;;;;;;14.93;74.03;96737.91;4986416;28;20050;-63
2023/03/22 08:08:09;;;;;;;1.30;1.30;;;;;;;13.95;74.06;96581.41;4985480;28;20060;-59
2023/03/22 08:10:36;;;;;;;1.50;1.50;;;;;;;14.77;74.29;96736.75;4997453;28;20077;-57
2023/03/22 08:13:03;;;;;;;1.48;1.48;;;;;;;14.51;74.75;96717.75;4972280;28;20058;-61
2023/03/22 08:15:30;;;;;;;1.20;1.20;;;;;;;12.89;73.91;96492.59;4966412;28;20457;-58
2023/03/22 08:17:57;;;;;;;1.50;1.50;;;;;;;14.45;74.91;96733.28;4966927;28;20051;-59
2023/03/22 08:20:26;;;;;;;1.30;1.30;;;;;;;14.26;73.03;96703.09;4965090;28;20077;-58
2023/03/22 08:22:53;;;;;;;1.30;1.30;;;;;;;14.04;73.09;96684.81;4977830;28;20575;-59
2023/03/22 08:25:20;;;;;;;1.23;1.23;;;;;;;14.04;73.06;96693.16;4982733;28;20054;-68
2023/03/22 08:27:47;;;;;;;1.20;1.20;;;;;;;14.24;73.52;96794.63;4982356;28;20054;-65
2023/03/22 08:30:14;;;;;;;1.20;1.20;;;;;;;12.57;72.88;96496.56;4966463;28;20328;-63
2023/03/22 08:32:41;;;;;;;1.05;1.05;;;;;;;14.13;72.13;96732.56;4981199;28;20106;-63
2023/03/22 08:35:08;;;;;;;1.00;1.00;;;;;;;13.08;74.03;96586.75;4984347;28;20051;-57
2023/03/22 08:37:35;;;;;;;1.20;1.20;;;;;;;13.91;75.94;96750.50;4983406;28;20498;-54
2023/03/22 08:40:05;;;;;;;1.13;1.13;;;;;;;13.59;77.82;96698.41;4972451;28;20116;-55
2023/03/22 08:42:32;;;;;;;1.10;1.10;;;;;;;13.35;78.54;96688.09;4971235;28;20087;-69
2023/03/22 08:44:58;;;;;;;1.20;1.20;;;;;;;13.65;81.44;96730.22;4965332;28;20082;-54
2023/03/22 08:47:25;;;;;;;1.40;1.40;;;;;;;13.82;82.29;96733.38;4966191;28;20113;-56
2023/03/22 08:49:52;;;;;;;1.08;1.08;;;;;;;14.04;81.45;96729.38;4980532;28;20066;-56
2023/03/22 08:52:18;;;;;;;1.20;1.20;;;;;;;14.21;78.96;96739.72;4992560;28;20148;-57
2023/03/22 08:54:45;;;;;;;1.17;1.17;;;;;;;14.41;75.72;96741.69;4985217;28;20814;-61
2023/03/22 08:57:13;;;;;;;1.17;1.17;;;;;;;14.37;73.10;96715.03;4968087;28;20066;-57
2023/03/22 08:59:39;;;;;;;1.30;1.30;;;;;;;14.74;74.36;96759.88;4992108;28;20046;-60
2023/03/22 09:02:07;;;;;;;1.30;1.30;;;;;;;14.99;71.60;96743.81;4983568;28;20584;-58
2023/03/22 09:04:34;;;;;;;1.30;1.30;;;;;;;15.18;69.93;96734.97;4984510;28;20058;-63
2023/03/22 09:07:01;;;;;;;1.35;1.35;;;;;;;15.77;68.98;96742.16;4974964;28;20065;-61
2023/03/22 09:09:28;;;;;;;1.45;1.45;;;;;;;16.18;65.37;96751.38;4983837;28;20053;-58
2023/03/22 09:11:55;;;;;;;1.60;1.60;;;;;;;16.48;61.48;96756.28;4965994;28;20113;-64
2023/03/22 09:14:21;;;;;;;1.60;1.60;;;;;;;16.43;61.51;96753.91;4965792;28;20133;-63
2023/03/22 09:16:48;;;;;;;1.70;1.70;;;;;;;16.18;61.57;96655.56;4965646;28;20136;-61
2023/03/22 09:19:15;;;;;;;1.60;1.60;;;;;;;16.73;61.41;96744.81;4978372;28;20082;-60
2023/03/22 09:21:41;;;;;;;1.70;1.70;;;;;;;16.29;59.75;96675.78;4971093;28;20164;-60
2023/03/22 09:24:08;;;;;;;1.50;1.50;;;;;;;17.06;59.75;96735.59;4964803;28;20510;-55
2023/03/22 09:26:35;;;;;;;1.73;1.73;;;;;;;16.56;57.05;96755.81;4983175;28;20116;-58
2023/03/22 09:29:02;;;;;;;1.70;1.70;;;;;;;16.47;57.42;96755.47;4976157;28;20585;-58
2023/03/22 09:31:29;;;;;;;1.70;1.70;;;;;;;16.28;55.51;96744.09;4964412;28;20059;-61
2023/03/22 09:33:56;;;;;;;1.80;1.80;;;;;;;16.63;53.54;96754.91;4964576;28;20077;-65
2023/03/22 09:36:22;;;;;;;1.80;1.80;;;;;;;16.17;52.33;96621.22;4965476;28;20054;-57
2023/03/22 09:38:49;;;;;;;1.80;1.80;;;;;;;16.77;53.73;96670.03;4980911;28;20081;-63
2023/03/22 09:41:53;;;;;;;2.03;2.03;;;;;;;17.51;52.65;96690.19;4979936;28;21106;-61
2023/03/22 09:44:41;;;;;;;1.73;1.73;;;;;;;17.99;53.83;96734.59;4957199;28;20054;-63
2023/03/22 09:47:20;;;;;;;1.80;1.80;;;;;;;17.67;51.02;96639.09;4983225;28;20125;-56
2023/03/22 09:49:54;;;;;;;1.60;1.60;;;;;;;18.58;48.09;96726.34;4983962;28;20057;-62
2023/03/22 09:52:20;;;;;;;1.98;1.98;;;;;;;18.28;48.22;96662.81;4976474;28;20485;-61
2023/03/22 09:54:47;;;;;;;1.90;1.90;;;;;;;18.40;47.55;96692.25;4980541;28;20066;-57
2023/03/22 09:57:19;;;;;;;1.92;1.92;;;;;;;18.70;47.42;96723.69;4966084;28;20900;-57
2023/03/22 10:00:13;;;;;;;1.83;1.83;;;;;;;18.75;46.28;96726.00;4962419;28;20066;-63
2023/03/22 10:02:56;;;;;;;1.83;1.83;;;;;;;18.39;48.60;96719.50;4963040;28;20062;-62
2023/03/22 10:05:29;;;;;;;1.40;1.40;;;;;;;16.17;51.75;96738.59;4979297;28;20058;-57
2023/03/22 10:08:08;;;;;;;1.80;1.80;;;;;;;17.03;52.74;96733.63;4965782;28;20058;-62
2023/03/22 10:10:36;;;;;;;1.80;1.80;;;;;;;16.85;50.13;96660.34;4980994;28;20679;-57
2023/03/22 10:13:14;;;;;;;1.55;1.55;;;;;;;17.79;48.50;96725.34;4989869;28;20066;-57
2023/03/22 10:15:44;;;;;;;1.80;1.80;;;;;;;17.78;48.97;96718.16;4982459;28;20054;-58
2023/03/22 10:18:36;;;;;;;1.70;1.70;;;;;;;18.04;48.07;96720.13;4974241;28;20082;-61
2023/03/22 10:21:06;;;;;;;1.95;1.95;;;;;;;18.43;48.10;96719.44;4964418;28;20047;-58
2023/03/22 10:23:50;;;;;;;1.60;1.60;;;;;;;18.14;47.48;96721.94;4965022;28;20235;-58
2023/03/22 10:26:31;;;;;;;1.77;1.77;;;;;;;17.95;47.64;96649.81;4964201;28;20058;-56
2023/03/22 10:29:02;;;;;;;1.65;1.65;;;;;;;18.36;46.39;96711.94;4974974;28;20256;-63
2023/03/22 10:31:31;;;;;;;1.70;1.70;;;;;;;17.40;48.23;96719.53;4984255;28;20050;-57
2023/03/22 10:34:06;;;;;;;1.80;1.80;;;;;;;17.37;49.70;96717.59;4973460;28;20055;-58
2023/03/22 10:36:35;;;;;;;1.83;1.83;;;;;;;17.39;49.90;96629.13;4983684;28;20058;-67
2023/03/22 10:39:08;;;;;;;1.70;1.70;;;;;;;17.73;48.79;96699.03;4976147;28;20109;-61
2023/03/22 10:41:36;;;;;;;1.88;1.88;;;;;;;18.05;48.84;96713.31;4974020;28;20066;-58
2023/03/22 10:44:05;;;;;;;1.73;1.73;;;;;;;18.04;48.81;96708.91;4977360;28;20047;-59
2023/03/22 10:46:38;;;;;;;1.90;1.90;;;;;;;18.36;49.86;96706.31;4966074;28;20057;-56
2023/03/22 10:49:06;;;;;;;1.80;1.80;;;;;;;18.19;46.86;96653.38;4977015;28;20413;-57
2023/03/22 10:51:43;;;;;;;1.80;1.80;;;;;;;18.58;47.57;96687.88;4983755;28;20149;-57
2023/03/22 10:54:15;;;;;;;1.90;1.90;;;;;;;18.65;47.85;96693.34;4983142;28;20093;-57
2023/03/22 10:56:41;;;;;;;1.70;1.70;;;;;;;16.48;47.23;96329.31;4981630;28;20058;-62
2023/03/22 10:59:48;;;;;;;1.60;1.60;;;;;;;18.89;46.33;96702.50;4983572;28;20063;-57
2023/03/22 11:02:26;;;;;;;1.88;1.88;;;;;;;18.22;47.82;96588.81;4983092;28;20059;-59
2023/03/22 11:04:56;;;;;;;1.60;1.60;;;;;;;18.74;46.76;96701.19;4983057;28;20066;-62
2023/03/22 11:07:31;;;;;;;1.92;1.92;;;;;;;18.70;46.64;96667.59;4983101;28;20108;-57
2023/03/22 11:10:22;;;;;;;1.80;1.80;;;;;;;18.94;46.63;96694.34;4982537;28;20062;-57
2023/03/22 11:12:52;;;;;;;2.15;2.15;;;;;;;18.91;47.32;96694.41;4982194;28;20129;-62
2023/03/22 11:15:33;;;;;;;1.70;1.70;;;;;;;18.89;46.99;96703.28;4976540;28;20113;-58
2023/03/22 11:18:29;;;;;;;2.10;2.10;;;;;;;16.56;46.41;96353.13;4988413;28;20047;-57
2023/03/22 11:21:09;;;;;;;1.88;1.88;;;;;;;18.77;46.83;96695.50;5003703;28;20049;-64
2023/03/22 11:23:39;;;;;;;1.50;1.50;;;;;;;18.79;47.51;96687.47;4988222;28;20050;-62
2023/03/22 11:26:12;;;;;;;1.80;1.80;;;;;;;18.85;46.19;96691.34;5002859;28;20054;-58
2023/03/22 11:28:49;;;;;;;2.17;2.17;;;;;;;18.80;46.51;96694.66;5005459;28;20053;-56
2023/03/22 11:31:18;;;;;;;1.80;1.80;;;;;;;18.20;47.95;96655.75;5007043;28;20070;-57
2023/03/22 11:33:59;;;;;;;1.90;1.90;;;;;;;18.14;48.71;96674.28;5005610;28;20589;-56
2023/03/22 11:36:27;;;;;;;1.70;1.70;;;;;;;17.89;48.88;96696.38;5006475;28;20050;-56
2023/03/22 11:39:05;;;;;;;1.73;1.73;;;;;;;17.69;50.58;96687.06;5005106;28;20049;-56
2023/03/22 11:41:37;;;;;;;1.80;1.80;;;;;;;17.12;51.67;96636.75;5004891;28;20053;-57
2023/03/22 11:44:12;;;;;;;2.03;2.03;;;;;;;17.22;53.55;96696.59;5004675;28;20058;-57
2023/03/22 11:46:48;;;;;;;1.77;1.77;;;;;;;16.61;53.91;96702.19;5003112;28;20135;-60